Tufão XANGSANE 2000: trajetória, intensidade e histórico
2/11/2000, 06:00:00
24/10/2000, 18:00:00 – 2/11/2000, 06:00:00
Trajetória histórica
Acompanhe a evolução e o deslocamento de Tufão XANGSANE em 2000, com a trajetória completa registrada, ventos máximos sustentados de 90 nós, pressão central mínima e cronologia detalhada.
| Data | Hora | Tipo | Ventokm/h | PressãohPa |
|---|---|---|---|---|
| 02/11 | 06:00 | EXCiclone extratropical | -- | 1006 |
| 02/11 | 03:00 | EXCiclone extratropical | -- | 1006 |
| 02/11 | 00:00 | EXCiclone extratropical | -- | 1006 |
| 01/11 | 21:00 | TSTempestade tropical | -- | 1003 |
| 01/11 | 18:00 | EXCiclone extratropical | 85 | 1000 |
| 01/11 | 15:00 | TSTempestade tropical | 90 | 996 |
| 01/11 | 12:00 | EXCiclone extratropical | 95 | 992 |
| 01/11 | 09:00 | STSTempestade tropical severa | 105 | 985 |
| 01/11 | 06:00 | STSTempestade tropical severa | 120 | 985 |
| 01/11 | 03:00 | STSTempestade tropical severa | 135 | 985 |
| 01/11 | 00:00 | STSTempestade tropical severa | 150 | 975 |
| 31/10 | 21:00 | TTufão | 155 | 968 |
| 31/10 | 18:00 | TTufão | 155 | 965 |
| 31/10 | 15:00 | TTufão | 165 | 963 |
| 31/10 | 12:00 | TTufão | 165 | 960 |
| 31/10 | 09:00 | TTufão | 165 | 960 |
| 31/10 | 06:00 | TTufão | 165 | 960 |
| 31/10 | 03:00 | TTufão | 165 | 960 |
| 31/10 | 00:00 | TTufão | 165 | 960 |
| 30/10 | 21:00 | TTufão | 165 | 960 |
| 30/10 | 18:00 | TTufão | 165 | 960 |
| 30/10 | 15:00 | TTufão | 165 | 960 |
| 30/10 | 12:00 | TTufão | 165 | 960 |
| 30/10 | 09:00 | TTufão | 165 | 960 |
| 30/10 | 06:00 | TTufão | 165 | 960 |
| 30/10 | 03:00 | TTufão | 165 | 963 |
| 30/10 | 00:00 | TTufão | 165 | 965 |
| 29/10 | 21:00 | TTufão | 145 | 970 |
| 29/10 | 18:00 | STSTempestade tropical severa | 120 | 975 |
| 29/10 | 15:00 | TSTempestade tropical | 110 | 978 |
| 29/10 | 12:00 | STSTempestade tropical severa | 100 | 980 |
| 29/10 | 09:00 | TSTempestade tropical | 100 | 980 |
| 29/10 | 06:00 | STSTempestade tropical severa | 100 | 985 |
| 29/10 | 03:00 | TSTempestade tropical | 100 | 980 |
| 29/10 | 00:00 | TSTempestade tropical | 100 | 990 |
| 28/10 | 21:00 | TSTempestade tropical | 100 | 980 |
| 28/10 | 18:00 | TSTempestade tropical | 100 | 990 |
| 28/10 | 15:00 | TTufão | 110 | 980 |
| 28/10 | 12:00 | TSTempestade tropical | 120 | 990 |
| 28/10 | 09:00 | TTufão | 120 | 980 |
| 28/10 | 06:00 | STSTempestade tropical severa | 120 | 985 |
| 28/10 | 03:00 | TTufão | 120 | 978 |
| 28/10 | 00:00 | STSTempestade tropical severa | 120 | 980 |
| 27/10 | 21:00 | TTufão | 130 | 975 |
| 27/10 | 18:00 | STSTempestade tropical severa | 140 | 975 |
| 27/10 | 15:00 | TTufão | 135 | 975 |
| 27/10 | 12:00 | STSTempestade tropical severa | 130 | 975 |
| 27/10 | 09:00 | TTufão | 125 | 978 |
| 27/10 | 06:00 | STSTempestade tropical severa | 120 | 980 |
| 27/10 | 03:00 | TTufão | 120 | 983 |
| 27/10 | 00:00 | STSTempestade tropical severa | 120 | 985 |
| 26/10 | 21:00 | TSTempestade tropical | 110 | 988 |
| 26/10 | 18:00 | TSTempestade tropical | 100 | 992 |
| 26/10 | 15:00 | TSTempestade tropical | 95 | 992 |
| 26/10 | 12:00 | TSTempestade tropical | 85 | 996 |
| 26/10 | 09:00 | TSTempestade tropical | 75 | 996 |
| 26/10 | 06:00 | TSTempestade tropical | 65 | 998 |
| 26/10 | 03:00 | TDDepressão tropical | 60 | 999 |
| 26/10 | 00:00 | TDDepressão tropical | 55 | 1004 |
| 25/10 | 21:00 | TDDepressão tropical | 55 | 1004 |
| 25/10 | 18:00 | TDDepressão tropical | 55 | 1004 |
| 25/10 | 15:00 | TDDepressão tropical | 55 | 1004 |
| 25/10 | 12:00 | TDDepressão tropical | 55 | 1004 |
| 25/10 | 09:00 | TDDepressão tropical | 45 | 1004 |
| 25/10 | 06:00 | TDDepressão tropical | 35 | 1004 |
| 25/10 | 03:00 | TDDepressão tropical | -- | 1006 |
| 25/10 | 00:00 | TDDepressão tropical | -- | 1008 |
| 24/10 | 21:00 | TDDepressão tropical | -- | 1008 |
| 24/10 | 18:00 | TDDepressão tropical | -- | 1008 |
Cronologia de localização
69 Registos de localizaçãoTambém pode encontrar estas ferramentas úteis
A localização, a extensão e o estado de cada evento podem ser atualizados em momentos diferentes consoante a fonte. Confirme decisões importantes junto das autoridades oficiais de emergência.
Os registos de eventos provêm da NASA EONET e são complementados por registos de deslizamentos de terra do USGS FDSN. As análises e previsões de tempestades podem utilizar a NOAA NHC ou o JTWC, com registos históricos ATCF da UCAR/NCAR quando disponíveis. As imagens de satélite provêm da NASA Worldview/GIBS (GOES e Himawari) ou da EUMETSAT Meteosat, consoante a cobertura do mapa.
Fontes: NASA EONET · USGS · NOAA NHC · JTWC · UCAR/NCAR ATCF · NASA Worldview/GIBS · EUMETSAT Meteosat · OpenStreetMap contributors